Latest Weather Observations for Biloela

IDQ60801

Issued at 10:32 am EST Monday 21 August 2017 (issued every 30 minutes, with the page automatically refreshed every 10 minutes)

About weather observations | Map of weather stations | Latest weather observations for QLD | Other Formats
Station Details ID: 039089 Name: THANGOOL AIRPORT Lat: -24.49 Lon: 150.57 Height: 193.1 m
Data from the previous 72 hours. | See also: Recent months at Biloela
Date/Time
EST
Temp
°C
App
Temp
°C
Dew
Point
°C
Rel
Hum
%
Delta-T
°C
Wind Press
QNH
hPa
Press
MSL
hPa
Rain since
9am
mm
Dir  Spd
km/h
Gust
km/h
Spd
kts
Gust
kts
21/10:30am 20.0 16.2 1.9 30 8.4 E 11 15 6 8 1021.5 - 0.0
21/10:00am 18.9 16.2 2.7 34 7.5 NE 6 9 3 5 1021.7 - 0.0
21/09:30am 16.9 14.1 1.8 36 6.8 SE 6 9 3 5 1022.1 - 0.0
21/09:00am 14.1 11.4 0.4 39 5.8 SE 4 7 2 4 1021.9 1021.8 0.0
21/08:30am 11.5 8.8 0.3 46 4.7 E 4 7 2 4 1021.9 - 0.0
21/08:07am 8.9 5.7 -0.7 51 3.8 ESE 6 9 3 5 1021.7 - 0.0
21/08:00am 7.9 4.4 -1.1 53 3.5 ESE 7 9 4 5 1021.6 - 0.0
21/07:30am 5.4 1.9 -1.7 60 2.6 E 7 11 4 6 1021.4 - 0.0
21/07:00am 3.4 -1.0 -2.5 65 2.1 E 11 13 6 7 1020.9 - 0.0
21/06:30am 2.1 -2.3 -2.8 70 1.7 E 11 13 6 7 1020.9 - 0.0
21/06:28am 1.9 -2.6 -3.0 70 1.7 E 11 13 6 7 1020.9 - 0.0
21/06:24am 1.7 -2.4 -3.0 71 1.6 E 9 13 5 7 1020.8 - 0.0
21/06:00am 2.3 -1.8 -3.2 67 1.9 E 9 11 5 6 1020.3 1020.1 0.0
21/05:51am 2.5 -1.6 -3.0 67 1.9 E 9 11 5 6 1020.2 - 0.0
21/05:38am 2.1 -2.0 -3.2 68 1.8 E 9 11 5 6 1019.9 - 0.0
21/05:30am 2.0 -2.1 -3.3 68 1.8 E 9 11 5 6 1019.9 - 0.0
21/05:00am 2.5 -2.0 -3.0 67 1.9 E 11 13 6 7 1019.5 - 0.0
21/04:50am 2.0 -2.5 -3.3 68 1.8 E 11 13 6 7 1019.7 - 0.0
21/04:30am 1.5 -2.6 -3.4 70 1.7 E 9 11 5 6 1019.8 - 0.0
21/04:00am 1.6 -2.2 -3.9 67 1.9 ESE 7 9 4 5 1019.4 - 0.0
21/03:30am 2.7 -1.1 -3.6 63 2.1 E 7 9 4 5 1019.7 - 0.0
21/03:00am 2.9 -1.6 -3.2 64 2.1 E 11 13 6 7 1019.8 1019.6 0.0
21/02:30am 2.5 -1.7 -3.6 64 2.1 ESE 9 11 5 6 1019.7 - 0.0
21/02:00am 2.3 -1.6 -4.4 61 2.2 ESE 7 13 4 7 1019.9 - 0.0
21/01:30am 3.1 -1.0 -3.2 63 2.2 E 9 11 5 6 1020.1 - 0.0
21/01:00am 3.1 -1.1 -3.9 60 2.4 E 9 13 5 7 1020.3 - 0.0
21/12:30am 3.7 -0.4 -2.9 62 2.3 E 9 11 5 6 1020.3 - 0.0
21/12:00am 2.3 -1.3 -3.8 64 2.0 ESE 6 7 3 4 1020.4 1020.2 0.0
 
Date/Time
EST
Temp
°C
App
Temp
°C
Dew
Point
°C
Rel
Hum
%
Delta-T
°C
Wind Press
QNH
hPa
Press
MSL
hPa
Rain since
9am
mm
Dir  Spd
km/h
Gust
km/h
Spd
kts
Gust
kts
20/11:30pm 3.0 0.1 -3.8 61 2.3 ESE 2 7 1 4 1020.4 - 0.0
20/11:00pm 3.3 0.8 -3.7 60 2.4 CALM 0 0 0 0 1020.4 - 0.0
20/10:30pm 5.1 2.2 -3.9 52 3.1 E 2 7 1 4 1020.6 - 0.0
20/10:00pm 5.0 2.5 -3.8 53 3.1 CALM 0 0 0 0 1020.8 - 0.0
20/09:30pm 6.5 2.6 -4.6 45 3.9 E 7 9 4 5 1020.9 - 0.0
20/09:00pm 9.1 4.4 -4.8 37 5.0 E 11 11 6 6 1020.7 1020.5 0.0
20/08:30pm 8.8 4.5 -4.4 39 4.8 E 9 11 5 6 1020.6 - 0.0
20/08:00pm 8.9 4.9 -5.7 35 5.1 E 7 9 4 5 1020.5 - 0.0
20/07:30pm 11.3 6.9 -5.6 30 6.1 E 9 9 5 5 1020.1 - 0.0
20/07:00pm 11.1 7.3 -5.8 30 6.1 ESE 6 9 3 5 1020.0 - 0.0
20/06:30pm 11.8 9.1 -5.6 29 6.3 CALM 0 0 0 0 1019.5 - 0.0
20/06:00pm 14.3 11.2 -6.0 24 7.5 SSE 2 6 1 3 1019.1 1018.9 0.0
20/05:30pm 17.3 13.3 -7.2 18 9.2 SSE 6 9 3 5 1018.9 - 0.0
20/05:00pm 19.0 14.9 -6.6 17 9.9 ESE 7 11 4 6 1018.6 - 0.0
20/04:30pm 19.7 15.7 -7.6 15 10.4 ESE 6 11 3 6 1018.5 - 0.0
20/04:00pm 19.9 14.5 -8.4 14 10.6 SSW 13 19 7 10 1018.2 - 0.0
20/03:30pm 19.8 14.8 -8.4 14 10.6 SSE 11 20 6 11 1018.3 - 0.0
20/03:00pm 20.6 17.0 -7.8 14 10.9 NNE 4 9 2 5 1018.2 1018.0 0.0
20/02:30pm 19.6 14.6 -8.6 14 10.5 WSW 11 19 6 10 1018.5 - 0.0
20/02:00pm 19.3 14.8 -7.1 16 10.1 S 9 15 5 8 1018.6 - 0.0
20/01:30pm 18.7 13.4 -7.6 16 9.9 SSE 13 22 7 12 1018.8 - 0.0
20/01:00pm 18.4 13.5 -7.1 17 9.7 S 11 19 6 10 1019.1 - 0.0
20/12:30pm 17.4 11.7 -7.9 17 9.4 SSE 15 20 8 11 1019.7 - 0.0
20/12:00pm 17.1 11.8 -7.4 18 9.1 SSE 13 28 7 15 1020.3 1020.1 0.0
20/11:30am 16.6 11.0 -6.4 20 8.7 SE 15 22 8 12 1021.0 - 0.0
20/11:00am 15.9 10.2 -7.0 20 8.5 S 15 22 8 12 1021.4 - 0.0
20/10:30am 15.1 8.4 -7.7 20 8.2 SE 20 32 11 17 1021.8 - 0.0
20/10:00am 14.9 9.0 -6.0 23 7.8 S 17 28 9 15 1022.1 - 0.0
20/09:30am 13.9 8.0 -5.3 26 7.2 S 17 28 9 15 1022.2 - 0.0
20/09:00am 13.1 7.4 -4.1 30 6.5 SSE 17 33 9 18 1022.2 1022.1 0.0
20/08:30am 12.1 5.8 -4.1 32 6.1 S 20 33 11 18 1022.2 - 0.0
20/08:00am 9.8 5.9 -4.2 37 5.1 ESE 7 13 4 7 1022.4 - 0.0
20/07:30am 8.3 4.1 -3.5 43 4.3 E 9 11 5 6 1022.4 - 0.0
20/07:00am 5.8 1.6 -3.8 50 3.4 E 9 11 5 6 1022.1 - 0.0
20/06:30am 4.0 -0.7 -4.7 53 2.9 E 11 11 6 6 1021.8 - 0.0
20/06:00am 3.2 -1.5 -4.7 56 2.6 E 11 13 6 7 1021.3 1021.2 0.0
20/05:30am 3.3 -1.7 -4.4 57 2.6 E 13 15 7 8 1021.0 - 0.0
20/05:00am 3.5 -1.5 -4.0 58 2.6 E 13 17 7 9 1020.5 - 0.0
20/04:30am 3.7 -1.3 -4.2 56 2.7 E 13 17 7 9 1020.1 - 0.0
20/04:00am 4.0 -0.2 -4.0 56 2.7 E 9 11 5 6 1020.0 - 0.0
20/03:30am 3.8 -0.1 -4.4 55 2.8 E 7 11 4 6 1020.1 - 0.0
20/03:00am 2.7 -1.2 -4.7 58 2.4 ENE 7 9 4 5 1020.0 1019.8 0.0
20/02:30am 3.4 -0.5 -4.8 55 2.7 E 7 9 4 5 1020.2 - 0.0
20/02:00am 4.2 1.7 -4.0 55 2.8 CALM 0 0 0 0 1020.4 - 0.0
20/01:30am 5.1 2.6 -4.4 50 3.3 CALM 0 0 0 0 1020.6 - 0.0
20/01:00am 5.0 2.4 -4.8 49 3.3 CALM 0 6 0 3 1020.6 - 0.0
20/12:30am 7.6 5.0 -4.8 41 4.4 CALM 0 0 0 0 1020.8 - 0.0
20/12:00am 9.0 5.2 -5.6 35 5.1 SE 6 9 3 5 1020.7 1020.5 0.0
 
Date/Time
EST
Temp
°C
App
Temp
°C
Dew
Point
°C
Rel
Hum
%
Delta-T
°C
Wind Press
QNH
hPa
Press
MSL
hPa
Rain since
9am
mm
Dir  Spd
km/h
Gust
km/h
Spd
kts
Gust
kts
19/11:30pm 9.7 5.7 -5.8 33 5.5 S 7 11 4 6 1020.8 - 0.0
19/11:00pm 10.1 6.1 -5.4 33 5.6 S 7 11 4 6 1021.1 - 0.0
19/10:30pm 10.7 6.7 -5.7 31 5.9 SSE 7 9 4 5 1021.2 - 0.0
19/10:00pm 11.0 7.0 -5.5 31 6.0 S 7 9 4 5 1021.0 - 0.0
19/09:30pm 12.3 8.4 -6.1 27 6.7 S 6 11 3 6 1020.8 - 0.0
19/09:00pm 14.0 9.6 -5.7 25 7.3 S 9 19 5 10 1020.6 1020.4 0.0
19/08:30pm 13.4 9.5 -6.2 25 7.2 S 6 11 3 6 1020.3 - 0.0
19/08:00pm 15.6 10.4 -6.0 22 8.1 SSW 13 17 7 9 1019.8 - 0.0
19/07:30pm 15.8 10.6 -6.5 21 8.3 SSW 13 20 7 11 1019.4 - 0.0
19/07:00pm 15.7 10.5 -6.5 21 8.3 SSW 13 20 7 11 1019.1 - 0.0
19/06:30pm 15.7 11.2 -6.5 21 8.3 SSW 9 15 5 8 1018.6 - 0.0
19/06:00pm 17.6 11.9 -7.0 18 9.3 SSW 15 26 8 14 1018.1 1017.9 0.0
19/05:30pm 18.6 12.6 -6.9 17 9.8 SSW 17 24 9 13 1017.6 - 0.0
19/05:00pm 19.7 13.2 -7.6 15 10.4 SW 19 33 10 18 1017.3 - 0.0
19/04:30pm 20.6 14.6 -6.9 15 10.7 SSW 17 28 9 15 1017.0 - 0.0
19/04:00pm 20.8 13.1 -6.7 15 10.8 SW 26 35 14 19 1016.7 - 0.0
19/03:30pm 21.0 14.4 -6.6 15 10.9 SSW 20 32 11 17 1016.6 - 0.0
19/03:00pm 21.1 14.5 -6.5 15 10.9 SW 20 33 11 18 1016.6 1016.4 0.0
19/02:30pm 20.9 14.8 -4.3 18 10.4 SW 19 32 10 17 1016.8 - 0.0
19/02:00pm 21.2 14.9 -4.0 18 10.5 SW 20 32 11 17 1017.0 - 0.0
19/01:30pm 20.5 13.7 -5.4 17 10.4 WSW 22 33 12 18 1017.4 - 0.0
19/01:00pm 20.4 14.2 -4.7 18 10.2 SSW 19 32 10 17 1018.0 - 0.0
19/12:30pm 19.8 13.4 -4.5 19 9.9 SSW 20 35 11 19 1018.6 - 0.0
19/12:00pm 19.3 13.1 -2.9 22 9.3 SSW 20 35 11 19 1019.1 1018.9 0.0
19/11:30am 18.9 12.8 -3.9 21 9.3 SSW 19 30 10 16 1019.7 - 0.0
19/11:00am 18.5 12.6 -2.4 24 8.8 SSW 19 28 10 15 1020.4 - 0.0
19/10:30am 17.3 11.7 -2.9 25 8.3 S 17 28 9 15 1020.8 - 0.0
19/10:00am 16.8 10.8 -2.8 26 8.0 S 19 28 10 15 1021.3 - 0.0
19/09:30am 16.6 10.7 -2.5 27 7.8 SSE 19 30 10 16 1021.5 - 0.0
19/09:00am 15.6 9.4 -2.8 28 7.4 S 20 28 11 15 1021.6 1021.5 0.0
19/08:30am 15.1 9.6 -2.3 30 7.1 S 17 28 9 15 1021.7 - 0.0
19/08:00am 12.8 9.2 -2.3 35 6.0 ESE 7 11 4 6 1021.7 - 0.0
19/07:30am 11.0 7.6 -1.7 41 5.0 E 6 7 3 4 1021.4 - 0.0
19/07:00am 9.1 5.4 -2.5 44 4.4 E 7 9 4 5 1021.2 - 0.0
19/06:30am 8.4 3.8 -3.7 42 4.4 E 11 13 6 7 1020.9 - 0.0
19/06:00am 8.8 4.2 -3.7 41 4.6 E 11 13 6 7 1020.5 1020.3 0.0
19/05:30am 9.2 4.9 -4.7 37 5.0 ESE 9 11 5 6 1020.3 - 0.0
19/05:00am 10.7 6.8 -4.5 34 5.6 SE 7 15 4 8 1020.0 - 0.0
19/04:30am 12.1 7.8 -4.9 30 6.3 ESE 9 13 5 7 1019.5 - 0.0
19/04:00am 11.6 7.7 -4.5 32 6.0 SE 7 11 4 6 1019.2 - 0.0
19/03:30am 11.4 7.2 -4.3 33 5.9 ESE 9 13 5 7 1018.9 - 0.0
19/03:00am 10.7 6.0 -4.9 33 5.7 E 11 15 6 8 1018.8 1018.6 0.0
19/02:30am 10.2 5.2 -4.6 35 5.4 E 13 17 7 9 1018.7 - 0.0
19/02:00am 9.1 4.1 -4.4 38 4.9 E 13 15 7 8 1018.8 - 0.0
19/01:30am 11.5 6.5 -4.6 32 6.0 E 13 17 7 9 1018.8 - 0.0
19/01:00am 11.0 6.0 -4.2 34 5.7 E 13 17 7 9 1018.9 - 0.0
19/12:30am 10.4 5.5 -3.3 38 5.2 E 13 15 7 8 1018.9 - 0.0
19/12:00am 10.4 6.8 -3.3 38 5.2 ESE 6 7 3 4 1019.0 1018.8 0.0
 
Date/Time
EST
Temp
°C
App
Temp
°C
Dew
Point
°C
Rel
Hum
%
Delta-T
°C
Wind Press
QNH
hPa
Press
MSL
hPa
Rain since
9am
mm
Dir  Spd
km/h
Gust
km/h
Spd
kts
Gust
kts
18/11:30pm 12.7 9.1 -4.0 31 6.4 ENE 6 11 3 6 1019.0 - 0.0
18/11:00pm 14.1 9.9 -4.1 28 7.0 ENE 9 11 5 6 1018.9 - 0.0
18/10:30pm 14.2 9.3 -3.6 29 7.0 E 13 17 7 9 1018.8 - 0.0
18/10:00pm 14.2 10.1 -3.1 30 6.8 E 9 11 5 6 1018.6 - 0.0
18/09:30pm 15.5 11.7 -3.4 27 7.5 SE 7 11 4 6 1018.4 - 0.0
18/09:00pm 15.9 12.2 -2.6 28 7.5 SE 7 9 4 5 1018.2 1018.0 0.0
18/08:30pm 16.7 13.2 -2.9 26 8.0 S 6 9 3 5 1018.0 - 0.0
18/08:00pm 17.5 14.2 -1.2 28 8.0 SSE 6 7 3 4 1017.6 - 0.0
18/07:30pm 17.7 14.8 -1.0 28 8.0 SSE 4 7 2 4 1017.3 - 0.0
18/07:00pm 19.0 15.7 -0.9 26 8.6 S 6 9 3 5 1017.0 - 0.0
18/06:30pm 20.4 17.0 -0.8 24 9.3 S 7 11 4 6 1016.4 - 0.0
18/06:00pm 22.0 18.6 -0.7 22 10.1 SSW 7 11 4 6 1015.9 1015.7 0.0
18/05:30pm 24.3 20.1 -0.8 19 11.4 SSW 11 20 6 11 1015.6 - 0.0
18/05:00pm 25.7 21.6 -0.4 18 12.1 SSW 11 20 6 11 1015.3 - 0.0
18/04:30pm 26.7 21.9 0.4 18 12.5 SSW 15 24 8 13 1015.0 - 0.0
18/04:00pm 27.1 21.4 0.8 18 12.6 SW 20 33 11 18 1014.9 - 0.0
18/03:30pm 27.6 22.7 1.9 19 12.6 SSW 17 26 9 14 1014.8 - 0.0
18/03:00pm 27.2 21.5 0.8 18 12.6 SSW 20 30 11 16 1014.9 1014.7 0.0
18/02:30pm 27.8 22.9 2.1 19 12.7 SW 17 24 9 13 1015.0 - 0.0
18/02:00pm 27.6 22.6 1.2 18 12.8 SW 17 28 9 15 1015.4 - 0.0
18/01:30pm 27.2 21.9 1.6 19 12.4 WSW 19 26 10 14 1015.6 - 0.0
18/01:00pm 26.6 21.2 1.1 19 12.2 SW 19 28 10 15 1016.2 - 0.0
18/12:30pm 26.8 22.8 0.5 18 12.5 S 11 19 6 10 1016.6 - 0.0
18/12:00pm 26.3 21.1 0.1 18 12.3 SW 17 28 9 15 1017.0 1016.9 0.0
18/11:30am 27.0 21.6 1.4 19 12.4 WSW 19 26 10 14 1017.4 - 0.0
18/11:00am 25.7 20.7 1.1 20 11.7 SSW 17 24 9 13 1018.0 - 0.0

Other Formats:

Comma delimited format used in spreadsheet applications
http://www.bom.gov.au/fwo/IDQ60801/IDQ60801.94376.axf

JavaScript Object Notation format (JSON) in row-major order
http://www.bom.gov.au/fwo/IDQ60801/IDQ60801.94376.json